createdAt,value
2018-03-18T00:00:45.129Z,13.48
2018-03-18T00:03:12.578Z,14.02
2018-03-18T00:05:40.044Z,13.20
2018-03-18T00:08:07.513Z,13.18
2018-03-18T00:10:34.981Z,12.80
2018-03-18T00:13:02.419Z,11.85
2018-03-18T00:15:29.901Z,11.48
2018-03-18T00:17:58.128Z,13.62
2018-03-18T00:20:25.702Z,13.68
2018-03-18T00:22:53.168Z,12.90
2018-03-18T00:25:20.785Z,13.18
2018-03-18T00:27:48.265Z,13.30
2018-03-18T00:30:15.741Z,11.38
2018-03-18T00:32:43.319Z,12.70
2018-03-18T00:35:10.833Z,13.07
2018-03-18T00:37:38.353Z,13.50
2018-03-18T00:40:05.800Z,12.02
2018-03-18T00:42:33.766Z,12.45
2018-03-18T00:45:01.991Z,13.07
2018-03-18T00:47:29.447Z,12.27
2018-03-18T00:49:56.904Z,11.77
2018-03-18T00:52:24.364Z,13.00
2018-03-18T00:54:51.815Z,14.55
2018-03-18T00:57:19.281Z,14.75
2018-03-18T00:59:46.772Z,15.65
2018-03-18T01:02:14.225Z,14.30
2018-03-18T01:04:42.463Z,13.70
2018-03-18T01:07:09.945Z,12.65
2018-03-18T01:09:38.171Z,13.52
2018-03-18T01:12:05.628Z,12.68
2018-03-18T01:14:33.087Z,13.40
2018-03-18T01:17:00.539Z,13.48
2018-03-18T01:19:28.014Z,11.80
2018-03-18T01:21:55.472Z,11.05
2018-03-18T01:24:22.982Z,14.90
2018-03-18T01:26:51.405Z,12.65
2018-03-18T01:29:18.871Z,12.35
2018-03-18T01:31:46.336Z,12.75
2018-03-18T01:34:13.825Z,13.57
2018-03-18T01:36:42.047Z,14.00
2018-03-18T01:39:09.510Z,13.30
2018-03-18T01:41:37.020Z,13.02
2018-03-18T01:44:04.533Z,12.35
2018-03-18T01:46:32.019Z,13.10
2018-03-18T01:49:00.241Z,14.98
2018-03-18T01:51:27.684Z,13.18
2018-03-18T01:53:55.132Z,15.07
2018-03-18T01:56:22.607Z,12.82
2018-03-18T01:58:50.049Z,15.27
2018-03-18T02:01:17.555Z,14.38
2018-03-18T02:03:45.777Z,14.10
2018-03-18T02:06:13.219Z,13.90
2018-03-18T02:08:40.675Z,14.87
2018-03-18T02:11:08.135Z,12.73
2018-03-18T02:13:35.605Z,16.12
2018-03-18T02:16:03.039Z,15.25
2018-03-18T02:18:30.525Z,12.70
2018-03-18T02:20:57.964Z,14.43
2018-03-18T02:23:25.468Z,13.38
2018-03-18T02:25:56.396Z,14.77
2018-03-18T02:28:23.859Z,12.68
2018-03-18T02:30:51.304Z,14.18
2018-03-18T02:33:18.759Z,13.10
2018-03-18T02:35:46.214Z,13.45
2018-03-18T02:38:13.660Z,13.82
2018-03-18T02:40:41.104Z,12.13
2018-03-18T02:43:08.632Z,13.07
2018-03-18T02:45:36.089Z,13.85
2018-03-18T02:48:03.573Z,13.88
2018-03-18T02:50:31.077Z,14.55
2018-03-18T02:52:58.513Z,12.73
2018-03-18T02:55:25.970Z,12.80
2018-03-18T02:57:53.422Z,12.88
2018-03-18T03:00:21.124Z,12.77
2018-03-18T03:02:49.365Z,13.75
2018-03-18T03:05:16.820Z,13.60
2018-03-18T03:07:46.055Z,13.85
2018-03-18T03:10:13.614Z,12.95
2018-03-18T03:12:41.051Z,13.25
2018-03-18T03:15:09.296Z,13.95
2018-03-18T03:17:36.766Z,14.27
2018-03-18T03:20:04.231Z,12.13
2018-03-18T03:22:31.675Z,13.35
2018-03-18T03:24:59.136Z,14.15
2018-03-18T03:27:26.600Z,13.95
2018-03-18T03:29:54.072Z,11.63
2018-03-18T03:32:22.300Z,13.27
2018-03-18T03:34:49.764Z,12.25
2018-03-18T03:37:17.221Z,12.52
2018-03-18T03:39:44.692Z,13.98
2018-03-18T03:42:12.135Z,13.88
2018-03-18T03:44:39.605Z,13.35
2018-03-18T03:47:07.048Z,12.73
2018-03-18T03:49:34.537Z,14.10
2018-03-18T03:52:02.745Z,13.55
2018-03-18T03:54:30.179Z,12.98
2018-03-18T03:56:57.670Z,12.63
2018-03-18T03:59:25.116Z,12.93
2018-03-18T04:01:52.593Z,11.98
2018-03-18T04:04:20.159Z,12.52
2018-03-18T04:06:47.620Z,12.85
2018-03-18T04:09:15.074Z,12.95
2018-03-18T04:11:42.532Z,12.88
2018-03-18T04:14:10.002Z,11.10
2018-03-18T04:16:37.473Z,12.25
2018-03-18T04:19:05.706Z,11.77
2018-03-18T04:21:33.189Z,12.52
2018-03-18T04:24:00.629Z,13.13
2018-03-18T04:26:28.104Z,10.77
2018-03-18T04:28:55.559Z,11.88
2018-03-18T04:31:23.025Z,12.10
2018-03-18T04:33:51.244Z,12.93
2018-03-18T04:36:18.704Z,12.07
2018-03-18T04:38:46.154Z,12.20
2018-03-18T04:41:13.625Z,11.30
2018-03-18T04:43:41.093Z,11.73
2018-03-18T04:46:08.544Z,12.93
2018-03-18T04:48:36.043Z,11.00
2018-03-18T04:51:04.274Z,11.43
2018-03-18T04:53:31.715Z,12.20
2018-03-18T04:55:59.152Z,10.95
2018-03-18T04:58:26.659Z,11.80
2018-03-18T05:00:54.145Z,13.07
2018-03-18T05:03:22.351Z,11.55
2018-03-18T05:05:49.828Z,11.90
2018-03-18T05:08:17.306Z,13.62
2018-03-18T05:10:44.776Z,12.10
2018-03-18T05:13:12.953Z,13.25
2018-03-18T05:15:40.397Z,12.35
2018-03-18T05:18:07.876Z,13.85
2018-03-18T05:20:36.084Z,12.32
2018-03-18T05:23:03.578Z,11.90
2018-03-18T05:25:31.028Z,11.18
2018-03-18T05:27:58.486Z,11.88
2018-03-18T05:30:25.960Z,12.07
2018-03-18T05:32:53.412Z,12.98
2018-03-18T05:35:20.875Z,12.55
2018-03-18T05:37:49.080Z,12.37
2018-03-18T05:40:16.539Z,12.05
2018-03-18T05:42:43.995Z,11.75
2018-03-18T05:45:11.443Z,9.57
2018-03-18T05:47:38.896Z,11.93
2018-03-18T05:50:06.381Z,11.70
2018-03-18T05:52:33.838Z,12.05
2018-03-18T05:55:01.320Z,11.32
2018-03-18T05:57:28.751Z,12.63
2018-03-18T05:59:56.212Z,11.95
2018-03-18T06:02:23.765Z,10.18
2018-03-18T06:04:51.237Z,11.32
2018-03-18T06:07:18.696Z,11.68
2018-03-18T06:09:46.147Z,11.30
2018-03-18T06:12:13.618Z,11.02
2018-03-18T06:14:41.095Z,12.32
2018-03-18T06:17:09.323Z,12.27
2018-03-18T06:19:36.777Z,11.85
2018-03-18T06:22:04.233Z,10.05
2018-03-18T06:24:31.672Z,11.60
2018-03-18T06:26:59.155Z,11.57
2018-03-18T06:29:26.602Z,10.80
2018-03-18T06:31:54.068Z,11.48
2018-03-18T06:34:21.527Z,10.90
2018-03-18T06:36:49.001Z,10.77
2018-03-18T06:39:16.462Z,9.52
2018-03-18T06:41:44.023Z,9.88
2018-03-18T06:44:11.480Z,8.95
2018-03-18T06:46:38.944Z,10.05
2018-03-18T06:49:07.186Z,9.90
2018-03-18T06:51:34.668Z,10.07
2018-03-18T06:54:02.111Z,9.80
2018-03-18T06:56:29.632Z,9.45
2018-03-18T06:58:57.087Z,10.77
2018-03-18T07:01:24.524Z,9.50
2018-03-18T07:03:51.983Z,10.43
2018-03-18T07:06:20.339Z,9.30
2018-03-18T07:08:47.886Z,8.60
2018-03-18T07:11:15.329Z,9.98
2018-03-18T07:13:42.781Z,9.70
2018-03-18T07:16:10.228Z,11.30
2018-03-18T07:18:37.716Z,9.75
2018-03-18T07:21:05.928Z,9.77
2018-03-18T07:23:33.519Z,9.40
2018-03-18T07:26:00.964Z,11.45
2018-03-18T07:28:28.429Z,9.98
2018-03-18T07:30:55.952Z,9.85
2018-03-18T07:33:23.419Z,10.07
2018-03-18T07:35:50.886Z,11.43
2018-03-18T07:38:18.345Z,10.93
2018-03-18T07:40:45.818Z,9.13
2018-03-18T07:43:13.291Z,7.45
2018-03-18T07:45:40.747Z,7.93
2018-03-18T07:48:08.184Z,8.35
2018-03-18T07:50:35.697Z,10.80
2018-03-18T07:53:03.945Z,8.80
2018-03-18T07:55:32.163Z,9.35
2018-03-18T07:57:59.599Z,7.32
2018-03-18T08:00:27.097Z,10.07
2018-03-18T08:02:54.556Z,9.95
2018-03-18T08:05:22.084Z,9.15
2018-03-18T08:07:49.529Z,8.50
2018-03-18T08:10:16.995Z,9.25
2018-03-18T08:12:44.833Z,7.55
2018-03-18T08:15:12.329Z,8.63
2018-03-18T08:17:39.824Z,9.20
2018-03-18T08:20:08.352Z,9.45
2018-03-18T08:22:35.954Z,8.75
2018-03-18T08:25:03.940Z,10.07
2018-03-18T08:27:31.572Z,10.35
2018-03-18T08:29:59.106Z,9.35
2018-03-18T08:32:26.685Z,8.77
2018-03-18T08:34:58.858Z,8.82
2018-03-18T08:37:27.346Z,8.80
2018-03-18T08:39:58.962Z,9.48
2018-03-18T08:42:44.118Z,8.60
2018-03-18T08:45:11.821Z,9.23
2018-03-18T08:47:39.762Z,10.15
2018-03-18T08:50:07.268Z,9.77
2018-03-18T08:52:34.722Z,10.02
2018-03-18T08:55:02.191Z,10.25
2018-03-18T08:57:29.688Z,8.00
2018-03-18T08:59:57.172Z,10.77
2018-03-18T09:02:24.607Z,9.70
2018-03-18T09:04:52.083Z,9.18
2018-03-18T09:07:19.523Z,9.18
2018-03-18T09:09:46.973Z,10.32
2018-03-18T09:12:14.440Z,8.80
2018-03-18T09:14:41.920Z,9.40
2018-03-18T09:17:09.397Z,8.68
2018-03-18T09:19:37.630Z,9.10
2018-03-18T09:22:05.073Z,9.05
2018-03-18T09:24:42.949Z,8.82
2018-03-18T09:27:12.691Z,8.52
2018-03-18T09:29:40.133Z,9.25
2018-03-18T09:32:07.616Z,9.20
2018-03-18T09:34:52.513Z,6.87
2018-03-18T10:22:06.611Z,8.20
2018-03-18T10:24:34.075Z,8.82
2018-03-18T10:27:02.248Z,9.10
2018-03-18T10:29:29.702Z,8.68
2018-03-18T10:31:57.176Z,9.70
2018-03-18T10:34:25.489Z,9.18
2018-03-18T10:36:53.004Z,8.10
2018-03-18T10:39:20.486Z,9.00
2018-03-18T10:41:48.697Z,8.35
2018-03-18T10:44:16.237Z,9.38
2018-03-18T10:46:43.748Z,8.85
2018-03-18T10:49:11.205Z,8.85
2018-03-18T10:51:38.660Z,9.70
2018-03-18T10:54:06.093Z,9.57
2018-03-18T10:56:33.558Z,9.40
2018-03-18T10:59:01.019Z,9.27
2018-03-18T11:01:33.236Z,8.75
2018-03-18T11:04:06.417Z,8.75
2018-03-18T11:06:33.856Z,9.13
2018-03-18T11:09:02.140Z,10.98
2018-03-18T11:11:29.549Z,9.05
2018-03-18T11:13:57.668Z,9.48
2018-03-18T11:16:25.864Z,8.27
2018-03-18T11:18:53.325Z,9.80
2018-03-18T11:21:20.787Z,9.25
2018-03-18T11:23:48.301Z,8.82
2018-03-18T11:26:15.781Z,10.10
2018-03-18T11:28:43.231Z,9.52
2018-03-18T11:31:10.664Z,7.70
2018-03-18T11:33:38.914Z,10.05
2018-03-18T11:36:06.380Z,9.30
2018-03-18T11:38:33.888Z,9.48
2018-03-18T11:41:01.333Z,8.68
2018-03-18T11:43:28.761Z,8.82
2018-03-18T11:45:57.000Z,8.38
2018-03-18T11:48:24.428Z,8.40
2018-03-18T11:50:51.896Z,8.48
2018-03-18T11:53:19.368Z,9.27
2018-03-18T11:55:46.829Z,8.50
2018-03-18T11:58:14.355Z,9.43
2018-03-18T12:00:41.799Z,9.45
2018-03-18T12:03:09.248Z,9.80
2018-03-18T12:05:36.705Z,8.20
2018-03-18T12:08:04.265Z,8.40
2018-03-18T12:10:33.256Z,8.75
2018-03-18T12:13:00.789Z,9.00
2018-03-18T12:15:28.248Z,8.55
2018-03-18T12:17:55.685Z,8.95
2018-03-18T12:20:23.159Z,9.52
2018-03-18T12:22:51.378Z,8.55
2018-03-18T12:25:18.832Z,8.32
2018-03-18T12:27:46.349Z,7.75
2018-03-18T12:30:14.592Z,8.13
2018-03-18T12:32:42.073Z,7.62
2018-03-18T12:35:10.308Z,9.35
2018-03-18T12:37:37.759Z,8.70
2018-03-18T12:40:16.901Z,9.80
2018-03-18T12:42:56.020Z,8.60
2018-03-18T12:45:23.539Z,8.75
2018-03-18T12:47:51.767Z,8.98
2018-03-18T12:50:19.228Z,8.40
2018-03-18T12:52:46.734Z,8.02
2018-03-18T12:55:14.164Z,8.55
2018-03-18T12:57:42.393Z,7.97
2018-03-18T13:00:09.852Z,8.75
2018-03-18T13:02:37.303Z,8.57
2018-03-18T13:05:04.752Z,7.50
2018-03-18T13:07:32.204Z,8.50
2018-03-18T13:09:59.647Z,7.37
2018-03-18T13:12:27.146Z,7.95
2018-03-18T13:14:54.595Z,6.85
2018-03-18T13:17:22.056Z,7.72
2018-03-18T13:19:49.524Z,7.68
2018-03-18T13:22:16.954Z,7.35
2018-03-18T13:24:44.477Z,7.45
2018-03-18T13:27:11.913Z,7.95
2018-03-18T13:29:39.497Z,8.65
2018-03-18T13:32:06.949Z,8.15
2018-03-18T13:34:34.408Z,7.53
2018-03-18T13:37:03.422Z,9.48
2018-03-18T13:39:30.890Z,8.40
2018-03-18T13:41:58.337Z,8.20
2018-03-18T13:44:25.848Z,9.38
2018-03-18T13:46:53.295Z,8.25
2018-03-18T13:49:20.755Z,7.68
2018-03-18T13:51:48.223Z,7.20
2018-03-18T13:54:16.436Z,7.30
2018-03-18T13:56:43.896Z,7.25
2018-03-18T13:59:11.331Z,6.93
2018-03-18T14:01:38.790Z,8.00
2018-03-18T14:04:06.215Z,7.25
2018-03-18T14:06:34.454Z,7.28
2018-03-18T14:09:01.900Z,7.40
2018-03-18T14:11:29.391Z,7.85
2018-03-18T14:13:56.862Z,7.12
2018-03-18T14:16:25.153Z,6.57
2018-03-18T14:18:52.584Z,7.70
2018-03-18T14:21:20.023Z,6.47
2018-03-18T14:23:47.477Z,7.30
2018-03-18T14:26:14.940Z,7.90
2018-03-18T14:28:42.385Z,7.43
2018-03-18T14:31:09.852Z,8.02
2018-03-18T14:33:37.292Z,6.57
2018-03-18T14:36:04.731Z,7.35
2018-03-18T14:38:32.185Z,7.10
2018-03-18T14:40:59.650Z,6.20
2018-03-18T14:43:27.113Z,6.65
2018-03-18T14:45:54.569Z,5.97
2018-03-18T14:48:22.037Z,6.03
2018-03-18T14:50:49.486Z,6.32
2018-03-18T14:53:16.942Z,6.82
2018-03-18T14:55:44.393Z,7.45
2018-03-18T14:58:11.842Z,6.00
2018-03-18T15:00:39.293Z,6.15
2018-03-18T15:03:06.762Z,7.20
2018-03-18T15:05:34.275Z,5.90
2018-03-18T15:08:01.792Z,7.00
2018-03-18T15:10:29.278Z,6.10
2018-03-18T15:12:57.547Z,5.90
2018-03-18T15:15:25.769Z,5.65
2018-03-18T15:17:53.229Z,6.53
2018-03-18T15:20:20.693Z,6.15
2018-03-18T15:22:48.149Z,5.93
2018-03-18T15:25:15.680Z,6.53
2018-03-18T15:27:43.125Z,6.65
2018-03-18T15:30:10.579Z,6.82
2018-03-18T15:32:38.024Z,6.25
2018-03-18T15:35:05.507Z,6.57
2018-03-18T15:37:32.975Z,5.82
2018-03-18T15:40:01.040Z,6.25
2018-03-18T15:42:28.501Z,6.22
2018-03-18T15:44:55.953Z,6.22
2018-03-18T15:47:23.420Z,5.95
2018-03-18T15:49:50.847Z,4.93
2018-03-18T15:52:18.318Z,4.93
2018-03-18T15:54:45.821Z,6.68
2018-03-18T15:57:13.985Z,5.78
2018-03-18T15:59:41.455Z,6.07
2018-03-18T16:02:08.933Z,5.80
2018-03-18T16:04:37.142Z,5.95
2018-03-18T16:07:04.630Z,5.60
2018-03-18T16:09:32.100Z,6.57
2018-03-18T16:12:00.339Z,6.32
2018-03-18T16:14:27.912Z,5.60
2018-03-18T16:16:55.346Z,6.20
2018-03-18T16:19:22.844Z,6.28
2018-03-18T16:21:50.295Z,5.87
2018-03-18T16:24:17.786Z,5.03
2018-03-18T16:26:45.262Z,6.05
2018-03-18T16:29:24.458Z,7.20
2018-03-18T16:31:52.698Z,5.93
2018-03-18T16:34:20.151Z,6.28
2018-03-18T16:36:47.621Z,5.95
2018-03-18T16:39:15.072Z,6.00
2018-03-18T16:41:42.524Z,5.68
2018-03-18T16:44:10.011Z,6.25
2018-03-18T16:46:38.420Z,5.75
2018-03-18T16:49:05.900Z,7.53
2018-03-18T16:51:33.367Z,5.45
2018-03-18T16:54:00.839Z,4.82
2018-03-18T16:56:28.299Z,6.28
2018-03-18T16:58:56.543Z,6.05
2018-03-18T17:01:24.043Z,6.37
2018-03-18T17:03:51.946Z,6.40
2018-03-18T17:06:19.416Z,5.72
2018-03-18T17:08:46.972Z,6.72
2018-03-18T17:11:14.435Z,6.15
2018-03-18T17:13:41.938Z,6.72
2018-03-18T17:16:10.172Z,5.22
2018-03-18T17:18:39.333Z,6.03
2018-03-18T17:21:06.795Z,5.70
2018-03-18T17:23:34.274Z,6.10
2018-03-18T17:26:01.686Z,6.10
2018-03-18T17:28:29.902Z,5.72
2018-03-18T17:30:57.435Z,6.45
2018-03-18T17:33:24.864Z,5.28
2018-03-18T17:35:53.120Z,6.22
2018-03-18T17:38:20.601Z,6.00
2018-03-18T17:40:48.081Z,6.55
2018-03-18T17:43:15.550Z,6.25
2018-03-18T17:45:54.684Z,6.20
2018-03-18T17:48:33.888Z,5.47
2018-03-18T17:51:13.163Z,7.18
2018-03-18T17:53:52.355Z,5.75
2018-03-18T17:56:32.341Z,4.80
2018-03-18T17:58:59.898Z,6.18
2018-03-18T18:01:27.387Z,5.75
2018-03-18T18:03:54.855Z,5.68
2018-03-18T18:06:23.087Z,5.28
2018-03-18T18:08:50.550Z,4.70
2018-03-18T18:11:18.019Z,5.05
2018-03-18T18:13:45.497Z,5.72
2018-03-18T18:16:13.715Z,5.40
2018-03-18T18:18:42.036Z,6.45
2018-03-18T18:21:13.710Z,5.90
2018-03-18T18:23:41.169Z,5.78
2018-03-18T18:26:10.155Z,5.40
2018-03-18T18:28:38.387Z,6.10
2018-03-18T18:31:05.839Z,6.05
2018-03-18T18:33:33.300Z,6.65
2018-03-18T18:36:00.787Z,6.03
2018-03-18T18:38:28.248Z,5.40
2018-03-18T18:40:56.519Z,5.93
2018-03-18T18:43:24.045Z,4.93
2018-03-18T18:45:52.072Z,4.93
2018-03-18T18:48:19.546Z,5.47
2018-03-18T18:50:47.028Z,5.10
2018-03-18T18:53:14.515Z,4.90
2018-03-18T18:55:42.042Z,5.22
2018-03-18T18:58:09.536Z,5.95
2018-03-18T19:00:37.749Z,5.47
2018-03-18T19:03:05.308Z,5.60
2018-03-18T19:05:32.657Z,4.55
2018-03-18T19:08:00.330Z,4.78
2018-03-18T19:10:27.766Z,4.87
2018-03-18T19:12:55.296Z,5.80
2018-03-18T19:15:23.546Z,6.30
2018-03-18T19:30:41.035Z,5.20
2018-03-18T19:33:09.090Z,5.10
2018-03-18T19:35:36.609Z,5.93
2018-03-18T19:38:04.999Z,6.43
2018-03-18T19:40:32.813Z,5.03
2018-03-18T19:43:00.673Z,4.82
2018-03-18T19:45:28.137Z,5.07
2018-03-18T19:47:55.583Z,5.03
2018-03-18T19:50:23.044Z,4.40
2018-03-18T19:52:54.388Z,5.45
2018-03-18T19:55:21.882Z,4.85
2018-03-18T19:57:50.085Z,5.25
2018-03-18T20:00:17.555Z,5.15
2018-03-18T20:02:45.007Z,4.37
2018-03-18T20:05:12.474Z,4.75
2018-03-18T20:07:39.964Z,4.68
2018-03-18T20:10:07.430Z,4.78
2018-03-18T20:12:35.642Z,5.30
2018-03-18T20:15:03.855Z,4.95
2018-03-18T20:17:31.291Z,4.80
2018-03-18T20:19:58.757Z,5.37
2018-03-18T20:22:26.226Z,5.03
2018-03-18T20:24:53.686Z,4.90
2018-03-18T20:27:21.144Z,5.22
2018-03-18T20:29:49.413Z,4.68
2018-03-18T20:32:16.895Z,5.47
2018-03-18T20:34:44.523Z,4.07
2018-03-18T20:37:11.987Z,5.40
2018-03-18T20:39:39.466Z,5.57
2018-03-18T20:42:06.947Z,4.37
2018-03-18T20:44:34.526Z,5.68
2018-03-18T20:47:02.833Z,5.28
2018-03-18T20:49:30.274Z,5.20
2018-03-18T20:51:57.756Z,5.03
2018-03-18T20:54:25.257Z,5.75
2018-03-18T20:56:52.895Z,5.18
2018-03-18T20:59:21.119Z,6.20
2018-03-18T21:01:48.600Z,5.62
2018-03-18T21:04:16.113Z,5.57
2018-03-18T21:06:43.524Z,4.97
2018-03-18T21:09:11.037Z,5.53
2018-03-18T21:11:38.513Z,5.70
2018-03-18T21:14:06.025Z,5.20
2018-03-18T21:16:34.222Z,5.43
2018-03-18T21:19:01.696Z,5.35
2018-03-18T21:21:29.144Z,5.72
2018-03-18T21:23:56.620Z,5.37
2018-03-18T21:26:24.092Z,5.35
2018-03-18T21:28:52.340Z,5.45
2018-03-18T21:31:19.806Z,4.43
2018-03-18T21:33:47.272Z,4.97
2018-03-18T21:36:14.768Z,5.78
2018-03-18T21:38:42.355Z,5.05
2018-03-18T21:41:09.820Z,5.35
2018-03-18T21:43:37.296Z,5.32
2018-03-18T21:46:04.768Z,6.35
2018-03-18T21:48:32.372Z,6.03
2018-03-18T21:50:59.850Z,6.50
2018-03-18T21:53:27.309Z,6.70
2018-03-18T21:55:54.773Z,5.97
2018-03-18T21:58:22.274Z,5.70
2018-03-18T22:00:49.760Z,5.68
2018-03-18T22:03:17.266Z,6.53
2018-03-18T22:05:44.820Z,6.00
2018-03-18T22:08:12.304Z,5.07
2018-03-18T22:10:39.901Z,4.53
2018-03-18T22:13:08.166Z,5.20
2018-03-18T22:15:35.625Z,6.03
2018-03-18T22:18:03.080Z,4.55
2018-03-18T22:20:30.798Z,4.72
2018-03-18T22:22:58.233Z,5.95
2018-03-18T22:25:25.713Z,5.25
2018-03-18T22:27:53.952Z,5.05
2018-03-18T22:30:21.920Z,7.12
2018-03-18T22:32:49.415Z,5.82
2018-03-18T22:35:17.603Z,5.72
2018-03-18T22:37:45.076Z,6.05
2018-03-18T22:40:12.515Z,5.68
2018-03-18T22:42:39.987Z,6.07
2018-03-18T22:45:07.441Z,6.80
2018-03-18T22:47:34.904Z,5.35
2018-03-18T22:50:02.366Z,5.75
2018-03-18T22:52:30.143Z,6.03
2018-03-18T22:54:57.600Z,6.22
2018-03-18T22:57:25.051Z,5.30
2018-03-18T22:59:52.669Z,5.93
2018-03-18T23:02:21.723Z,7.05
2018-03-18T23:04:49.208Z,5.78
2018-03-18T23:07:16.661Z,6.18
2018-03-18T23:09:44.095Z,5.90
2018-03-18T23:12:11.596Z,6.35
2018-03-18T23:14:39.029Z,6.93
2018-03-18T23:17:07.287Z,6.35
2018-03-18T23:19:34.907Z,5.53
2018-03-18T23:22:02.363Z,5.53
2018-03-18T23:24:29.820Z,6.32
2018-03-18T23:26:57.272Z,6.03
2018-03-18T23:29:24.738Z,5.68
2018-03-18T23:31:52.208Z,6.20
2018-03-18T23:34:19.669Z,5.70
2018-03-18T23:36:47.218Z,6.70
2018-03-18T23:39:15.488Z,5.93
2018-03-18T23:41:42.966Z,7.15
2018-03-18T23:44:10.403Z,7.03
2018-03-18T23:46:37.973Z,6.60
2018-03-18T23:49:05.560Z,6.80
2018-03-18T23:51:33.014Z,5.15
2018-03-18T23:54:00.458Z,5.75
2018-03-18T23:56:27.983Z,5.93
2018-03-18T23:58:55.468Z,6.72
